Currently 79°F in Anza, California, USA
79°F
95°F / 71°F
6 mph NW
0.00"
Sunday, July 23, 2017 7:43 PM PDT

Anza, California Weather Summary
Last 36 Hours

Temperature Winds Hourly Humidity Dewpoint
Time Report Norm Report Norm Max Gusts Precip. Rpt. Norm Rpt. Norm Pressure
1Sun 07:43 PM  78.9°F  78°F  6 mph NW  8 mph  13 mph  0.00"  38%  47%  50°F  55°F  N/A
Sun 07:00 PM  82.3°F  81°F  10 mph W  10 mph  18 mph  0.00"  42%  42%  56°F  56°F  N/A
Sun 06:00 PM  86.9°F  85°F  14 mph W  11 mph  20 mph  0.00"  40%  37%  59°F  55°F  N/A
Sun 05:00 PM  91.1°F  87°F  12 mph W  11 mph  20 mph  0.00"  33%  35%  57°F  55°F  N/A
Sun 04:00 PM  93.2°F  88°F  12 mph W  11 mph  21 mph  0.00"  29%  34%  55°F  55°F  N/A
Sun 03:00 PM  94.7°F  89°F  10 mph W  10 mph  18 mph  0.00"  27%  32%  55°F  54°F  N/A
2Sun 02:55 PM  95.0°F  89°F  12 mph W  11 mph  18 mph  ----  27%  32%  55°F  54°F  N/A
Sun 02:00 PM  93.1°F  89°F  9 mph W  10 mph  19 mph  0.00"  29%  32%  55°F  54°F  N/A
Sun 01:00 PM  92.1°F  88°F  8 mph NW  10 mph  18 mph  0.00"  30%  32%  55°F  54°F  N/A
Sun 12:00 PM  92.1°F  87°F  12 mph W  9 mph  17 mph  0.00"  31%  32%  56°F  53°F  N/A
Sun 11:00 AM  90.0°F  86°F  10 mph W  8 mph  17 mph  0.00"  33%  34%  56°F  53°F  N/A
Sun 10:00 AM  88.8°F  83°F  9 mph NW  7 mph  16 mph  0.00"  35%  35%  57°F  52°F  N/A
Sun 09:00 AM  85.5°F  80°F  5 mph NW  6 mph  13 mph  0.00"  41%  40%  59°F  53°F  N/A
Sun 08:00 AM  80.8°F  76°F  5 mph SW  6 mph  10 mph  0.00"  50%  46%  60°F  53°F  N/A
Sun 07:00 AM  76.0°F  69°F  5 mph NW  4 mph  9 mph  0.00"  58%  57%  60°F  53°F  N/A
Sun 06:00 AM  71.6°F  66°F  5 mph N  5 mph  7 mph  0.00"  63%  61%  58°F  51°F  N/A
Sun 05:00 AM  71.8°F  66°F  3 mph W  5 mph  7 mph  0.00"  64%  62%  58°F  52°F  N/A
Sun 04:00 AM  71.4°F  66°F  5 mph NW  5 mph  9 mph  0.00"  66%  63%  59°F  53°F  N/A
3Sun 03:37 AM  70.5°F  66°F  4 mph SW  5 mph  6 mph  ----  67%  63%  59°F  53°F  N/A
Sun 03:00 AM  71.1°F  67°F  4 mph S  5 mph  6 mph  0.00"  67%  63%  59°F  53°F  N/A
Sun 02:00 AM  71.9°F  67°F  4 mph NW  5 mph  9 mph  0.00"  65%  63%  59°F  54°F  N/A
Sun 01:00 AM  71.8°F  67°F  6 mph NW  6 mph  8 mph  0.00"  63%  62%  58°F  54°F  N/A
Sun 12:00 AM  72.1°F  68°F  5 mph SW  6 mph  9 mph  0.00"  60%  62%  57°F  54°F  N/A
Sat 11:00 PM  74.2°F  69°F  6 mph NW  6 mph  10 mph  0.00"  54%  61%  56°F  54°F  N/A
Sat 10:00 PM  74.9°F  70°F  6 mph NW  6 mph  8 mph  0.00"  52%  58%  55°F  55°F  N/A
Sat 09:00 PM  77.3°F  73°F  6 mph NW  6 mph  9 mph  0.00"  51%  54%  57°F  54°F  N/A
Sat 08:00 PM  81.3°F  76°F  6 mph NW  7 mph  14 mph  0.00"  46%  50%  58°F  55°F  N/A
Sat 07:00 PM  87.0°F  81°F  9 mph W  10 mph  17 mph  0.00"  34%  43%  54°F  56°F  N/A
Sat 06:00 PM  90.3°F  84°F  12 mph W  11 mph  17 mph  0.00"  30%  38%  54°F  55°F  N/A
Sat 05:00 PM  92.2°F  87°F  13 mph W  11 mph  22 mph  0.00"  26%  35%  51°F  55°F  N/A
Sat 04:00 PM  93.7°F  88°F  15 mph W  11 mph  23 mph  0.00"  25%  34%  51°F  55°F  N/A
Sat 03:00 PM  95.1°F  88°F  10 mph W  10 mph  17 mph  0.00"  23%  32%  50°F  54°F  N/A
Sat 02:00 PM  94.1°F  88°F  calm  10 mph  16 mph  0.00"  22%  32%  49°F  54°F  N/A
Sat 01:00 PM  92.8°F  88°F  6 mph S  10 mph  16 mph  0.00"  24%  32%  49°F  54°F  N/A
Sat 12:00 PM  90.8°F  87°F  10 mph SE  9 mph  17 mph  0.00"  26%  32%  50°F  53°F  N/A
Sat 11:00 AM  91.0°F  86°F  9 mph SE  8 mph  14 mph  0.00"  23%  33%  46°F  53°F  N/A
Sat 10:00 AM  90.9°F  83°F  8 mph S  7 mph  9 mph  0.00"  21%  35%  44°F  52°F  N/A
Sat 09:00 AM  88.5°F  80°F  1 mph E  6 mph  7 mph  0.00"  19%  39%  40°F  52°F  N/A
Sat 08:00 AM  83.3°F  76°F  calm  6 mph  2 mph  0.00"  22%  45%  39°F  52°F  N/A

  1. Current weather data. No green row appears if the current weather data is also the high or low for the current day.
  2. High temperature for the current day.
  3. Low temperature for the current day.

The Anza, California weather pages are a service of WeatherCurrents. The Anza Valley is southwestern Riverside County, east of Temecula and Aguanga, south of Mount San Jacinto and west of Mount Santa Rosa.
Copyright ©Sun Jul 23 19:44:22 PDT 2017  WeatherCurrents. All rights reserved. - Submit questions and comments - Privacy Policy

This page automatically refreshes every 10 minutes.